Time;durP1;ratioP1;P1;durP2;ratioP2;P2;SDS_P1;SDS_P2;PMS_P1;PMS_P2;Temp;Humidity;BMP_temperature;BMP_pressure;BME280_temperature;BME280_humidity;BME280_pressure;Samples;Min_cycle;Max_cycle;Signal;HPM_P1;HPM_P2
2023/02/10 00:01:42;;;;;;;31.58;16.33;;;-4.50;99.90;;;;;;4950918;28;20051;-79
2023/02/10 00:04:12;;;;;;;15.43;10.25;;;-4.50;99.90;;;;;;4918934;29;20055;-80
2023/02/10 00:06:43;;;;;;;32.28;14.82;;;-4.60;99.90;;;;;;4937264;29;20043;-79
2023/02/10 00:09:15;;;;;;;20.20;13.03;;;-5.00;99.90;;;;;;4936537;29;20047;-79
2023/02/10 00:11:56;;;;;;;18.50;14.63;;;-5.30;99.90;;;;;;4937182;29;20039;-79
2023/02/10 00:14:24;;;;;;;24.15;13.57;;;-5.40;99.90;;;;;;4948280;28;20055;-79
2023/02/10 00:16:53;;;;;;;28.35;14.93;;;-5.40;99.90;;;;;;4953857;29;20058;-79
2023/02/10 00:19:23;;;;;;;39.88;15.48;;;-5.30;99.90;;;;;;4936754;29;20673;-79
2023/02/10 00:21:51;;;;;;;19.70;15.70;;;-5.30;99.90;;;;;;4953486;28;20047;-79
2023/02/10 00:24:20;;;;;;;26.95;16.73;;;-5.30;99.90;;;;;;4936646;29;20039;-79
2023/02/10 00:26:47;;;;;;;23.92;15.30;;;-5.20;99.90;;;;;;4954357;29;20078;-79
2023/02/10 00:29:16;;;;;;;28.55;13.60;;;-5.30;99.90;;;;;;4936807;29;20040;-79
2023/02/10 00:31:44;;;;;;;31.50;18.20;;;-5.40;99.90;;;;;;4921236;29;20062;-79
2023/02/10 00:34:16;;;;;;;32.92;14.70;;;-5.40;99.90;;;;;;4929170;29;20051;-79
2023/02/10 00:36:45;;;;;;;;;;;-5.30;99.90;;;;;;4937425;29;20047;-79
2023/02/10 00:39:14;;;;;;;17.05;13.15;;;-5.10;99.90;;;;;;4932072;29;19945;-79
2023/02/10 00:41:42;;;;;;;23.75;15.02;;;-4.80;99.90;;;;;;4920248;29;20047;-79
2023/02/10 00:44:11;;;;;;;22.67;15.68;;;-4.60;99.90;;;;;;4956322;29;20063;-80
2023/02/10 00:46:38;;;;;;;20.95;12.30;;;-4.70;99.90;;;;;;4938378;29;20055;-79
2023/02/10 00:49:06;;;;;;;24.35;14.98;;;-5.00;99.90;;;;;;4901899;29;20058;-80
2023/02/10 00:51:43;;;;;;;25.35;15.23;;;-5.20;99.90;;;;;;4968550;28;20065;-80
2023/02/10 00:54:12;;;;;;;28.80;14.80;;;-5.20;99.90;;;;;;4936603;28;20036;-79
2023/02/10 00:56:41;;;;;;;31.25;14.23;;;-5.30;99.90;;;;;;4975235;28;20045;-80
2023/02/10 00:59:13;;;;;;;22.90;15.30;;;-5.20;99.90;;;;;;4962306;28;20047;-80
2023/02/10 01:01:41;;;;;;;28.17;17.98;;;-5.20;99.90;;;;;;4969458;28;20035;-79
2023/02/10 01:04:09;;;;;;;25.63;14.27;;;-5.20;99.90;;;;;;4929793;28;20041;-80
2023/02/10 01:06:37;;;;;;;25.92;15.82;;;-5.30;99.90;;;;;;4977633;28;20039;-80
2023/02/10 01:09:06;;;;;;;21.55;12.63;;;-5.30;99.90;;;;;;4960018;29;20272;-80
2023/02/10 01:11:34;;;;;;;17.95;12.13;;;-5.30;99.90;;;;;;4976899;28;20043;-79
2023/02/10 01:14:02;;;;;;;22.65;13.50;;;-5.40;99.90;;;;;;4971588;28;20040;-80
2023/02/10 01:16:30;;;;;;;16.52;10.93;;;-5.40;99.90;;;;;;4976437;28;20035;-79
2023/02/10 01:19:00;;;;;;;20.50;11.52;;;-5.30;99.90;;;;;;4960178;28;20065;-80
2023/02/10 01:21:32;;;;;;;20.13;11.27;;;-5.20;99.90;;;;;;4958354;28;20057;-80
2023/02/10 01:24:00;;;;;;;17.15;11.15;;;-5.00;99.90;;;;;;4959013;29;20053;-79
2023/02/10 01:26:31;;;;;;;14.87;9.53;;;-4.70;99.90;;;;;;4943034;29;20047;-80
2023/02/10 01:28:59;;;;;;;14.43;11.93;;;-4.30;99.90;;;;;;4943279;29;20057;-80
2023/02/10 01:31:27;;;;;;;15.55;12.20;;;-4.30;99.90;;;;;;4959036;29;20059;-81
2023/02/10 01:33:57;;;;;;;10.80;8.77;;;-4.20;99.90;;;;;;4952010;28;20355;-79
2023/02/10 01:36:26;;;;;;;16.55;10.27;;;-4.00;99.90;;;;;;4932733;29;20051;-79
2023/02/10 01:38:53;;;;;;;9.63;8.50;;;-3.90;99.90;;;;;;4940184;29;20118;-79
2023/02/10 01:41:23;;;;;;;13.05;7.70;;;-4.10;99.90;;;;;;4931328;29;20043;-79
2023/02/10 01:44:06;;;;;;;12.43;8.35;;;-4.10;99.90;;;;;;4931581;29;20424;-79
2023/02/10 01:46:35;;;;;;;14.38;10.32;;;-4.00;99.90;;;;;;4934980;29;20471;-79
2023/02/10 01:49:11;;;;;;;21.65;9.40;;;-4.10;99.90;;;;;;4915444;28;20039;-79
2023/02/10 01:51:50;;;;;;;10.85;8.93;;;-4.10;99.90;;;;;;4919529;29;20060;-79
2023/02/10 01:54:26;;;;;;;14.68;9.93;;;-4.00;99.90;;;;;;4943335;29;20040;-79
2023/02/10 01:56:54;;;;;;;12.73;9.07;;;-3.90;99.90;;;;;;4948938;29;20511;-79
2023/02/10 01:59:26;;;;;;;16.13;10.07;;;-3.70;99.90;;;;;;4932417;29;20054;-79
2023/02/10 02:01:57;;;;;;;12.10;10.03;;;-3.40;99.90;;;;;;4932332;29;20058;-79
2023/02/10 02:04:25;;;;;;;12.25;8.32;;;-3.20;99.90;;;;;;4930349;29;20066;-79
2023/02/10 02:06:53;;;;;;;12.13;9.93;;;-3.00;99.90;;;;;;4920346;29;20060;-79
2023/02/10 02:09:21;;;;;;;11.38;8.75;;;-2.80;99.90;;;;;;4946688;28;20460;-79
2023/02/10 02:12:05;;;;;;;14.35;10.35;;;-2.80;99.90;;;;;;4931942;29;20058;-79
2023/02/10 02:14:54;;;;;;;11.30;7.95;;;-2.70;99.90;;;;;;4929259;29;20043;-79
2023/02/10 02:17:34;;;;;;;15.48;8.85;;;-2.80;99.90;;;;;;4930874;28;20631;-79
2023/02/10 02:20:40;;;;;;;21.83;10.70;;;-2.80;99.90;;;;;;4948837;29;20062;-79
2023/02/10 02:23:26;;;;;;;14.93;10.30;;;-2.70;99.90;;;;;;4867693;29;20479;-79
2023/02/10 02:26:21;;;;;;;10.50;9.00;;;-2.70;99.90;;;;;;4930552;29;20273;-79
2023/02/10 02:28:57;;;;;;;10.52;9.15;;;-2.70;99.90;;;;;;4924108;29;20507;-79
2023/02/10 02:31:45;;;;;;;15.27;8.95;;;-2.70;99.90;;;;;;4925575;29;20055;-79
2023/02/10 02:34:40;;;;;;;20.17;8.95;;;-2.90;99.90;;;;;;4945399;29;20051;-79
2023/02/10 02:37:29;;;;;;;11.02;8.98;;;-2.70;99.90;;;;;;4930968;29;20047;-79
2023/02/10 02:39:57;;;;;;;14.73;10.52;;;-2.70;99.90;;;;;;4929944;29;20451;-79
2023/02/10 02:42:29;;;;;;;13.55;10.20;;;-2.80;99.90;;;;;;4915221;29;20058;-79
2023/02/10 02:45:07;;;;;;;14.93;10.63;;;-2.80;99.90;;;;;;4930127;29;20078;-78
2023/02/10 02:48:12;;;;;;;15.52;11.50;;;-2.70;99.90;;;;;;4940158;29;20468;-79
2023/02/10 02:50:52;;;;;;;13.25;9.88;;;-2.80;99.90;;;;;;4914944;29;20051;-79
2023/02/10 02:53:45;;;;;;;14.93;10.38;;;-2.80;99.90;;;;;;4914158;29;20632;-78
2023/02/10 02:56:41;;;;;;;15.13;12.27;;;-2.80;99.90;;;;;;4934220;29;20596;-79
2023/02/10 02:59:27;;;;;;;19.48;10.30;;;-2.80;99.90;;;;;;4940706;29;20051;-79
2023/02/10 03:02:05;;;;;;;15.50;10.88;;;-2.90;99.90;;;;;;4914145;29;20431;-79
2023/02/10 03:04:34;;;;;;;18.77;10.80;;;-2.90;99.90;;;;;;4945872;29;20043;-79
2023/02/10 03:07:03;;;;;;;15.95;12.15;;;-2.80;99.90;;;;;;4916057;29;20780;-79
2023/02/10 03:09:32;;;;;;;19.27;12.02;;;-2.70;99.90;;;;;;4946542;29;20260;-79
2023/02/10 03:12:00;;;;;;;16.73;10.50;;;-2.70;99.90;;;;;;4932119;29;20043;-84
2023/02/10 03:14:27;;;;;;;21.15;12.35;;;-2.70;99.90;;;;;;4914372;29;20054;-84
2023/02/10 03:16:55;;;;;;;18.95;12.55;;;-2.80;99.90;;;;;;4914969;29;20514;-84
2023/02/10 03:19:23;;;;;;;19.75;11.10;;;-2.90;99.90;;;;;;4924433;29;20678;-84
2023/02/10 03:21:51;;;;;;;19.30;13.85;;;-3.00;99.90;;;;;;4947392;28;20055;-84
2023/02/10 03:24:19;;;;;;;18.13;11.93;;;-2.90;99.90;;;;;;4928967;29;20405;-84
2023/02/10 03:26:47;;;;;;;13.70;12.05;;;-2.90;99.90;;;;;;4931528;29;20070;-84
2023/02/10 03:29:16;;;;;;;13.00;9.77;;;-2.90;99.90;;;;;;4928388;29;20694;-84
2023/02/10 03:31:44;;;;;;;22.63;13.82;;;-3.00;99.90;;;;;;4940945;29;20043;-83
2023/02/10 03:34:12;;;;;;;15.57;11.52;;;-3.00;99.90;;;;;;4930225;29;20059;-84
2023/02/10 03:36:41;;;;;;;20.42;12.77;;;-3.00;99.90;;;;;;4930317;29;20412;-84
2023/02/10 03:39:08;;;;;;;19.30;13.38;;;-3.00;99.90;;;;;;4929650;29;20281;-85
2023/02/10 03:41:37;;;;;;;21.00;12.85;;;-3.00;99.90;;;;;;4946976;29;20047;-85
2023/02/10 03:44:04;;;;;;;26.17;13.38;;;-3.00;99.90;;;;;;4947719;29;20059;-85
2023/02/10 03:46:32;;;;;;;22.17;12.23;;;-3.00;99.90;;;;;;4900167;29;20052;-85
2023/02/10 03:49:00;;;;;;;26.10;12.02;;;-3.00;99.90;;;;;;4946781;29;20043;-84
2023/02/10 03:51:28;;;;;;;16.63;13.15;;;-3.00;99.90;;;;;;4923342;29;20494;-85
2023/02/10 03:53:56;;;;;;;22.67;11.57;;;-3.00;99.90;;;;;;4929557;29;20044;-85
2023/02/10 03:56:23;;;;;;;21.67;12.20;;;-3.10;99.90;;;;;;4928243;29;20417;-85
2023/02/10 03:58:51;;;;;;;26.38;14.90;;;-3.10;99.90;;;;;;4930779;29;20055;-84
2023/02/10 04:01:19;;;;;;;27.90;14.13;;;-3.10;99.90;;;;;;4929738;29;20050;-85
2023/02/10 04:03:46;;;;;;;17.73;12.45;;;-3.10;99.90;;;;;;4930903;29;20691;-85
2023/02/10 04:06:14;;;;;;;18.33;13.35;;;-3.10;99.90;;;;;;4947103;29;20050;-85
2023/02/10 04:08:42;;;;;;;17.85;11.73;;;-3.10;99.90;;;;;;4929904;29;20044;-85
2023/02/10 04:11:11;;;;;;;25.13;12.90;;;-3.10;99.90;;;;;;4947818;29;20047;-85
2023/02/10 04:13:39;;;;;;;24.02;12.95;;;-3.20;99.90;;;;;;4932572;29;20050;-84
2023/02/10 04:16:11;;;;;;;18.92;12.02;;;-3.20;99.90;;;;;;4934095;29;20423;-85
2023/02/10 04:18:41;;;;;;;19.15;12.02;;;-3.10;99.90;;;;;;4925883;29;20035;-84
2023/02/10 04:21:10;;;;;;;20.02;10.68;;;-3.10;99.90;;;;;;4933056;29;20404;-85
2023/02/10 04:23:38;;;;;;;20.80;13.05;;;-3.20;99.90;;;;;;4933295;29;20055;-84
2023/02/10 04:26:06;;;;;;;18.40;10.63;;;-3.20;99.90;;;;;;4949703;29;20235;-85
2023/02/10 04:28:34;;;;;;;17.60;14.07;;;-3.30;99.90;;;;;;4934297;29;20048;-84
2023/02/10 04:31:02;;;;;;;20.80;14.45;;;-3.40;99.90;;;;;;4952370;29;20051;-85
2023/02/10 04:33:31;;;;;;;13.68;11.23;;;-3.40;99.90;;;;;;4935474;28;20055;-85
2023/02/10 04:35:58;;;;;;;14.68;11.85;;;-3.40;99.90;;;;;;4952017;29;20050;-85
2023/02/10 04:38:26;;;;;;;13.18;11.32;;;-3.50;99.90;;;;;;4934150;29;20274;-85
2023/02/10 04:40:54;;;;;;;16.73;10.85;;;-3.70;99.90;;;;;;4950244;28;20059;-85
2023/02/10 04:43:22;;;;;;;18.88;12.73;;;-3.80;99.90;;;;;;4951386;29;20059;-85
2023/02/10 04:45:51;;;;;;;16.75;11.82;;;-3.90;99.90;;;;;;4954178;28;20055;-85
2023/02/10 04:48:20;;;;;;;16.30;9.77;;;-3.90;99.90;;;;;;4951101;29;20074;-85
2023/02/10 04:50:49;;;;;;;20.00;9.57;;;-4.10;99.90;;;;;;4950635;29;20051;-86
2023/02/10 04:53:17;;;;;;;13.70;10.60;;;-4.40;99.90;;;;;;4950415;28;20051;-85
2023/02/10 04:55:44;;;;;;;13.77;10.88;;;-4.60;99.90;;;;;;4933859;29;20059;-84
2023/02/10 04:58:13;;;;;;;16.15;11.10;;;-4.70;99.90;;;;;;4934566;29;20047;-85
2023/02/10 05:00:42;;;;;;;18.42;11.55;;;-4.70;99.90;;;;;;4934230;29;20339;-85
2023/02/10 05:03:09;;;;;;;15.90;8.88;;;-4.70;99.90;;;;;;4933851;29;20051;-85
2023/02/10 05:05:37;;;;;;;16.63;13.52;;;-4.80;99.90;;;;;;4948718;29;20050;-85
2023/02/10 05:08:05;;;;;;;19.20;12.10;;;-4.90;99.90;;;;;;4887220;29;20131;-85
2023/02/10 05:10:32;;;;;;;19.70;11.77;;;-5.00;99.90;;;;;;4933008;29;20051;-85
2023/02/10 05:13:00;;;;;;;14.00;9.80;;;-5.00;99.90;;;;;;4950635;29;20054;-84
2023/02/10 05:15:28;;;;;;;19.00;12.48;;;-5.10;99.90;;;;;;4949835;29;20062;-85
2023/02/10 05:17:55;;;;;;;15.90;9.60;;;-5.10;99.90;;;;;;4949098;28;20051;-85
2023/02/10 05:20:23;;;;;;;20.48;10.25;;;-5.20;99.90;;;;;;4943325;29;20058;-85
2023/02/10 05:22:51;;;;;;;17.55;10.65;;;-5.30;99.90;;;;;;4933886;29;20050;-85
2023/02/10 05:25:18;;;;;;;17.75;11.18;;;-5.30;99.90;;;;;;4932686;29;20039;-85
2023/02/10 05:27:46;;;;;;;18.23;11.07;;;-5.30;99.90;;;;;;4945689;29;20059;-85
2023/02/10 05:30:14;;;;;;;13.55;9.35;;;-5.20;99.90;;;;;;4915776;29;20420;-85
2023/02/10 05:32:42;;;;;;;13.50;9.85;;;-5.10;99.90;;;;;;4933200;29;20043;-85
2023/02/10 05:35:10;;;;;;;12.75;9.18;;;-5.20;99.90;;;;;;4950786;29;20043;-85
2023/02/10 05:37:38;;;;;;;14.80;10.02;;;-5.40;99.90;;;;;;4917531;29;20051;-85
2023/02/10 05:40:06;;;;;;;16.13;9.40;;;-5.50;99.90;;;;;;4943537;29;20047;-85
2023/02/10 05:42:34;;;;;;;16.23;10.60;;;-5.70;99.90;;;;;;4950407;29;20043;-85
2023/02/10 05:45:03;;;;;;;13.52;11.85;;;-5.90;99.90;;;;;;4933930;28;20039;-85
2023/02/10 05:47:30;;;;;;;13.48;10.10;;;-5.90;99.90;;;;;;4946970;28;20043;-85
2023/02/10 05:49:58;;;;;;;15.43;11.27;;;-5.80;99.90;;;;;;4917909;29;20043;-85
2023/02/10 05:52:26;;;;;;;15.70;9.65;;;-5.80;99.90;;;;;;4926051;29;20056;-85
2023/02/10 05:54:54;;;;;;;15.25;10.43;;;-5.70;99.90;;;;;;4952143;29;20058;-85
2023/02/10 05:57:22;;;;;;;24.50;11.32;;;-5.40;99.90;;;;;;4935879;29;20047;-85
2023/02/10 05:59:50;;;;;;;16.30;9.45;;;-5.20;99.90;;;;;;4929821;29;20059;-85
2023/02/10 06:02:18;;;;;;;14.68;11.70;;;-5.20;99.90;;;;;;4932799;29;20055;-84
2023/02/10 06:04:45;;;;;;;15.15;9.68;;;-5.40;99.90;;;;;;4947616;29;20047;-84
2023/02/10 06:07:14;;;;;;;13.23;8.85;;;-5.50;99.90;;;;;;4931750;29;20078;-83
2023/02/10 06:09:42;;;;;;;19.55;10.35;;;-5.60;99.90;;;;;;4944416;28;20055;-83
2023/02/10 06:12:13;;;;;;;;;;;-5.50;99.90;;;;;;4942074;29;20055;-83
2023/02/10 06:14:40;;;;;;;12.02;8.80;;;-5.60;99.90;;;;;;4950607;29;19929;-83
2023/02/10 06:17:10;;;;;;;17.70;9.60;;;-5.60;99.90;;;;;;4919079;28;20051;-83
2023/02/10 06:19:39;;;;;;;13.07;8.77;;;-5.70;99.90;;;;;;4951030;28;20765;-83
2023/02/10 06:22:09;;;;;;;10.80;7.47;;;-5.70;99.90;;;;;;4947266;29;20050;-84
2023/02/10 06:24:37;;;;;;;13.77;9.23;;;-5.70;99.90;;;;;;4948121;28;20051;-82
2023/02/10 06:27:07;;;;;;;15.77;10.98;;;-5.70;99.90;;;;;;4937879;29;20681;-83
2023/02/10 06:29:35;;;;;;;10.18;8.70;;;-5.70;99.90;;;;;;4949236;29;20055;-82
2023/02/10 06:32:03;;;;;;;9.77;7.82;;;-5.70;99.90;;;;;;4957336;29;20411;-84
2023/02/10 06:34:31;;;;;;;10.52;9.20;;;-5.80;99.90;;;;;;4963739;28;20041;-83
2023/02/10 06:36:59;;;;;;;19.45;8.57;;;-5.80;99.90;;;;;;4970615;28;20046;-84
2023/02/10 06:39:27;;;;;;;18.88;10.05;;;-5.90;99.90;;;;;;4957965;28;20031;-84
2023/02/10 06:41:57;;;;;;;10.93;7.57;;;-5.90;99.90;;;;;;4971333;28;20054;-84
2023/02/10 06:44:25;;;;;;;15.20;10.45;;;-5.90;99.90;;;;;;4975250;28;20321;-84
2023/02/10 06:46:53;;;;;;;13.73;9.38;;;-5.70;99.90;;;;;;4978030;28;20047;-84
2023/02/10 06:49:22;;;;;;;14.15;9.77;;;-5.20;99.90;;;;;;4945782;28;20027;-84
2023/02/10 06:51:49;;;;;;;19.60;10.15;;;-5.00;99.90;;;;;;4962856;28;20046;-84
2023/02/10 06:54:17;;;;;;;14.88;8.75;;;-4.90;99.90;;;;;;4975809;28;20070;-84
2023/02/10 06:56:45;;;;;;;11.18;9.13;;;-4.90;99.90;;;;;;4964033;28;20054;-84
2023/02/10 06:59:13;;;;;;;15.20;8.80;;;-5.10;99.90;;;;;;4959784;28;20037;-84
2023/02/10 07:01:41;;;;;;;14.23;10.82;;;-5.20;99.90;;;;;;4976617;28;20032;-84
2023/02/10 07:04:09;;;;;;;15.57;9.77;;;-5.10;99.90;;;;;;4953674;29;20267;-83
2023/02/10 07:06:36;;;;;;;13.02;8.80;;;-5.00;99.90;;;;;;4970927;29;20023;-85
2023/02/10 07:09:04;;;;;;;12.82;7.90;;;-5.10;99.90;;;;;;4955238;28;20498;-85
2023/02/10 07:11:32;;;;;;;12.48;8.00;;;-5.10;99.90;;;;;;4957546;29;20250;-85
2023/02/10 07:14:00;;;;;;;11.75;9.52;;;-5.30;99.90;;;;;;4939826;29;20050;-85
2023/02/10 07:16:30;;;;;;;10.55;8.13;;;-5.30;99.90;;;;;;4973498;29;20059;-85
2023/02/10 07:18:57;;;;;;;15.32;9.18;;;-5.00;99.90;;;;;;4957452;29;20051;-85
2023/02/10 07:21:25;;;;;;;17.98;8.73;;;-4.70;99.90;;;;;;4948853;28;20062;-85
2023/02/10 07:23:53;;;;;;;11.55;7.72;;;-4.60;99.90;;;;;;4928877;29;20423;-85
2023/02/10 07:26:21;;;;;;;11.57;9.05;;;-4.50;99.90;;;;;;4941751;28;20047;-85
2023/02/10 07:28:48;;;;;;;14.52;9.98;;;-4.60;99.90;;;;;;4912741;29;20203;-85
2023/02/10 07:31:16;;;;;;;16.05;8.93;;;-4.50;99.90;;;;;;4941764;29;20388;-85
2023/02/10 07:33:45;;;;;;;10.00;8.95;;;-4.70;99.90;;;;;;4926356;29;20066;-85
2023/02/10 07:36:13;;;;;;;11.27;9.98;;;-4.70;99.90;;;;;;4942356;29;20043;-85
2023/02/10 07:38:41;;;;;;;16.10;7.60;;;-4.50;99.90;;;;;;4912298;29;20051;-85
2023/02/10 07:41:09;;;;;;;9.38;8.45;;;-4.30;99.90;;;;;;4942568;28;20047;-85
2023/02/10 07:43:37;;;;;;;18.50;11.27;;;-4.10;99.90;;;;;;4921882;29;20078;-85
2023/02/10 07:46:11;;;;;;;14.70;10.05;;;-3.90;99.90;;;;;;4930375;29;20080;-85
2023/02/10 07:48:39;;;;;;;14.23;9.15;;;-3.70;99.90;;;;;;4932851;28;20070;-84
2023/02/10 07:51:07;;;;;;;11.43;8.07;;;-3.60;99.90;;;;;;4927177;29;20047;-85
2023/02/10 07:53:37;;;;;;;15.95;7.93;;;-3.60;99.90;;;;;;4931835;29;20055;-85
2023/02/10 07:56:05;;;;;;;24.65;11.65;;;-3.60;99.90;;;;;;4913292;29;20751;-85
2023/02/10 07:58:36;;;;;;;17.45;10.50;;;-3.40;99.90;;;;;;4947967;29;20060;-85
2023/02/10 08:01:08;;;;;;;20.92;11.27;;;-3.30;99.90;;;;;;4944006;28;20443;-85
2023/02/10 08:03:36;;;;;;;14.10;10.50;;;-3.30;99.90;;;;;;4933838;29;20070;-85
2023/02/10 08:06:04;;;;;;;30.65;12.00;;;-3.40;99.90;;;;;;4918498;29;20058;-84
2023/02/10 08:08:32;;;;;;;174.35;71.65;;;-3.30;99.90;;;;;;4930623;28;20035;-85
2023/02/10 08:11:03;;;;;;;56.95;27.10;;;-3.20;99.90;;;;;;4944853;29;20448;-83
2023/02/10 08:13:32;;;;;;;44.42;23.25;;;-3.10;99.90;;;;;;4924190;29;20047;-83
2023/02/10 08:16:04;;;;;;;25.52;14.45;;;-3.00;99.90;;;;;;4920905;29;20051;-84
2023/02/10 08:18:32;;;;;;;11.02;9.88;;;-2.90;99.90;;;;;;4948109;28;20043;-85
2023/02/10 08:21:04;;;;;;;16.77;9.63;;;-2.80;99.90;;;;;;4931613;29;20054;-84
2023/02/10 08:23:32;;;;;;;;;;;-2.60;99.90;;;;;;4934554;29;20055;-84
2023/02/10 08:26:05;;;;;;;17.05;9.75;;;-2.50;99.90;;;;;;4945345;28;19926;-83
2023/02/10 08:28:34;;;;;;;16.92;11.15;;;-2.30;99.90;;;;;;4912065;29;20514;-83
2023/02/10 08:31:04;;;;;;;17.80;9.80;;;-2.10;99.90;;;;;;4932849;29;20059;-83
2023/02/10 08:33:34;;;;;;;17.13;10.90;;;-2.10;99.90;;;;;;4943438;28;20051;-83
2023/02/10 08:36:15;;;;;;;15.73;10.38;;;-2.00;99.90;;;;;;4925065;29;20047;-83
2023/02/10 08:38:44;;;;;;;14.70;9.70;;;-1.90;99.90;;;;;;4951607;29;20590;-83
2023/02/10 08:41:12;;;;;;;11.45;7.93;;;-1.80;99.90;;;;;;4927880;29;20062;-83
2023/02/10 08:43:40;;;;;;;18.08;12.82;;;-1.70;99.90;;;;;;4945187;29;20063;-83
2023/02/10 08:46:09;;;;;;;13.27;9.52;;;-1.60;99.90;;;;;;4937671;29;20059;-83
2023/02/10 08:48:37;;;;;;;16.02;11.40;;;-1.50;99.90;;;;;;4934815;29;20051;-83
2023/02/10 08:51:08;;;;;;;20.77;9.93;;;-1.40;99.90;;;;;;4954317;29;20071;-83
2023/02/10 08:53:36;;;;;;;17.80;10.02;;;-1.30;99.90;;;;;;4950955;29;20369;-82
2023/02/10 08:56:07;;;;;;;10.93;8.00;;;-1.30;99.90;;;;;;4952069;29;20062;-82
2023/02/10 08:58:35;;;;;;;15.77;10.13;;;-1.10;99.90;;;;;;4934144;28;20055;-83
2023/02/10 09:01:12;;;;;;;19.85;8.85;;;-1.10;99.90;;;;;;4912797;29;20051;-82
2023/02/10 09:03:41;;;;;;;13.93;10.63;;;-1.00;99.90;;;;;;4937620;29;20814;-83
2023/02/10 09:06:16;;;;;;;15.13;10.13;;;-0.70;99.90;;;;;;4953278;29;20050;-83
2023/02/10 09:08:46;;;;;;;11.63;9.43;;;-0.20;99.90;;;;;;4945981;29;20040;-83
2023/02/10 09:11:14;;;;;;;20.00;9.80;;;0.70;99.90;;;;;;4935062;29;20062;-83
2023/02/10 09:13:42;;;;;;;16.30;11.48;;;1.70;99.90;;;;;;4943497;29;20051;-83
2023/02/10 09:16:11;;;;;;;15.38;8.70;;;1.90;99.90;;;;;;4952910;29;20059;-83
2023/02/10 09:18:39;;;;;;;18.63;11.10;;;3.00;99.90;;;;;;4939165;29;20051;-83
2023/02/10 09:21:06;;;;;;;24.63;10.27;;;2.60;99.90;;;;;;4938068;28;20055;-84
2023/02/10 09:23:35;;;;;;;13.18;8.50;;;2.60;99.90;;;;;;4899073;29;20788;-84
2023/02/10 09:26:03;;;;;;;20.88;11.00;;;3.70;99.90;;;;;;4930873;29;20043;-84
2023/02/10 09:28:31;;;;;;;13.68;9.23;;;4.60;99.90;;;;;;4945939;29;20039;-84
2023/02/10 09:30:59;;;;;;;16.42;10.68;;;4.60;99.90;;;;;;4947046;29;20781;-84
2023/02/10 09:33:26;;;;;;;17.98;10.20;;;4.70;99.90;;;;;;4925749;29;20392;-84
2023/02/10 09:35:54;;;;;;;16.00;10.70;;;4.90;99.90;;;;;;4943998;29;20059;-84
2023/02/10 09:38:22;;;;;;;17.30;12.88;;;6.00;99.90;;;;;;4916971;29;20877;-84
2023/02/10 09:41:00;;;;;;;15.50;11.50;;;5.80;99.90;;;;;;4907430;29;20517;-84
2023/02/10 09:43:59;;;;;;;14.15;10.88;;;6.80;99.90;;;;;;4921881;29;20062;-84
2023/02/10 09:46:49;;;;;;;13.80;11.00;;;5.90;99.90;;;;;;4928022;29;20039;-84
2023/02/10 09:49:47;;;;;;;14.18;10.55;;;5.40;99.90;;;;;;4934040;29;20475;-85
2023/02/10 09:52:41;;;;;;;25.15;10.35;;;5.40;99.90;;;;;;4926331;28;20062;-85
2023/02/10 09:55:20;;;;;;;17.20;12.63;;;5.40;99.90;;;;;;4918615;29;20055;-85
2023/02/10 09:58:13;;;;;;;19.98;13.05;;;5.00;99.90;;;;;;4946000;29;20047;-85
2023/02/10 10:00:45;;;;;;;13.60;11.20;;;3.90;99.90;;;;;;4908428;29;20062;-85
2023/02/10 10:03:18;;;;;;;27.48;13.82;;;3.30;99.90;;;;;;4898637;29;20052;-85
2023/02/10 10:06:07;;;;;;;24.05;11.85;;;3.00;99.90;;;;;;4917778;29;20043;-85
2023/02/10 10:09:10;;;;;;;21.10;12.48;;;2.70;99.90;;;;;;4915103;29;20400;-85
2023/02/10 10:11:44;;;;;;;31.63;12.98;;;2.60;99.90;;;;;;4925267;29;20055;-86
2023/02/10 10:14:26;;;;;;;15.68;11.98;;;2.60;99.90;;;;;;4947051;28;20067;-85
2023/02/10 10:17:23;;;;;;;19.85;12.48;;;2.60;99.90;;;;;;4928582;29;20054;-85
2023/02/10 10:20:12;;;;;;;16.30;11.93;;;2.70;99.90;;;;;;4927141;29;20066;-85
2023/02/10 10:23:03;;;;;;;20.73;12.68;;;2.70;99.90;;;;;;4887109;29;20053;-85
2023/02/10 10:25:57;;;;;;;23.90;14.13;;;2.70;99.90;;;;;;4942554;29;20055;-85
2023/02/10 10:28:44;;;;;;;20.35;15.63;;;2.90;99.90;;;;;;4927438;29;20059;-85
2023/02/10 10:31:24;;;;;;;28.90;17.33;;;2.70;99.90;;;;;;4926000;29;20439;-85
2023/02/10 10:33:58;;;;;;;24.00;14.40;;;2.40;99.90;;;;;;4920696;28;20060;-85
2023/02/10 10:36:39;;;;;;;32.17;13.63;;;2.40;99.90;;;;;;4926677;29;20059;-85
2023/02/10 10:39:37;;;;;;;28.05;16.63;;;2.50;99.90;;;;;;4944908;28;20058;-85
2023/02/10 10:42:29;;;;;;;21.85;14.90;;;2.50;99.90;;;;;;4942128;29;20039;-85
2023/02/10 10:45:07;;;;;;;20.67;14.07;;;2.70;99.90;;;;;;4904317;29;20047;-83
2023/02/10 10:47:46;;;;;;;20.67;13.77;;;2.80;99.90;;;;;;4922347;29;20059;-83
2023/02/10 10:50:18;;;;;;;28.23;14.60;;;2.90;99.90;;;;;;4936448;29;20066;-84
2023/02/10 10:52:51;;;;;;;22.83;15.02;;;2.80;99.90;;;;;;4942303;29;20051;-84
2023/02/10 10:55:29;;;;;;;23.00;15.55;;;2.70;99.90;;;;;;4937909;29;20070;-83
2023/02/10 10:58:00;;;;;;;20.10;13.52;;;2.70;99.90;;;;;;4921276;29;20051;-83
2023/02/10 11:00:29;;;;;;;30.75;17.67;;;2.80;99.90;;;;;;4945204;29;20062;-84
2023/02/10 11:03:04;;;;;;;23.95;14.82;;;3.00;99.90;;;;;;4942607;28;20059;-83
2023/02/10 11:05:35;;;;;;;19.65;11.50;;;3.00;99.90;;;;;;4913455;29;20044;-83
2023/02/10 11:08:07;;;;;;;17.77;13.10;;;3.20;99.90;;;;;;4921760;29;20059;-83
2023/02/10 11:10:52;;;;;;;25.60;14.35;;;3.40;99.90;;;;;;4909474;29;20054;-84
2023/02/10 11:13:26;;;;;;;17.08;12.07;;;3.60;99.90;;;;;;4926853;29;20400;-84
2023/02/10 11:16:03;;;;;;;23.70;13.55;;;3.70;99.90;;;;;;4927565;29;20078;-83
2023/02/10 11:18:31;;;;;;;18.58;13.82;;;3.60;99.90;;;;;;4925392;29;20058;-84
2023/02/10 11:21:05;;;;;;;26.90;13.68;;;3.60;99.90;;;;;;4911477;29;20047;-84
2023/02/10 11:23:46;;;;;;;25.58;15.70;;;3.70;99.90;;;;;;4897366;29;20054;-84
2023/02/10 11:26:25;;;;;;;20.20;13.73;;;3.50;99.90;;;;;;4923844;29;20047;-84
2023/02/10 11:28:54;;;;;;;19.45;13.52;;;3.50;99.90;;;;;;4929340;29;20078;-84
2023/02/10 11:31:21;;;;;;;21.60;13.48;;;3.70;99.90;;;;;;4943828;29;20416;-85
2023/02/10 11:34:02;;;;;;;20.48;12.93;;;3.70;99.90;;;;;;4937818;29;20059;-85
2023/02/10 11:36:42;;;;;;;21.25;13.00;;;3.60;99.90;;;;;;4945245;29;20054;-85
2023/02/10 11:39:30;;;;;;;18.27;12.30;;;3.80;99.90;;;;;;4943254;29;20059;-85
2023/02/10 11:42:11;;;;;;;23.00;14.93;;;3.90;99.90;;;;;;4927040;29;20075;-84
2023/02/10 11:44:39;;;;;;;23.48;13.27;;;3.80;99.90;;;;;;4937074;29;20047;-86
2023/02/10 11:47:16;;;;;;;22.63;13.88;;;3.90;99.90;;;;;;4905461;29;20046;-86
2023/02/10 11:49:46;;;;;;;17.25;12.10;;;4.10;99.90;;;;;;4912968;29;20047;-86
2023/02/10 11:52:15;;;;;;;17.83;13.45;;;4.30;99.90;;;;;;4928976;28;20059;-86
2023/02/10 11:54:43;;;;;;;17.67;12.25;;;4.40;99.90;;;;;;4904112;29;20412;-86
2023/02/10 12:01:01;;;;;;;16.67;11.10;;;4.10;99.90;;;;;;4927859;28;20066;-90
2023/02/10 12:03:28;;;;;;;18.58;12.70;;;4.10;99.90;;;;;;4923811;29;20062;-91
2023/02/10 12:06:08;;;;;;;14.77;12.30;;;4.10;99.90;;;;;;4921194;29;20040;-91
2023/02/10 12:09:01;;;;;;;16.27;12.23;;;4.10;99.90;;;;;;4942053;28;20055;-91
2023/02/10 12:11:44;;;;;;;20.08;12.55;;;4.10;99.90;;;;;;4925561;29;20054;-90
2023/02/10 12:14:57;;;;;;;17.05;12.13;;;4.40;99.90;;;;;;4945964;29;20047;-90
2023/02/10 12:17:37;;;;;;;18.15;10.73;;;4.40;99.90;;;;;;4934910;28;20047;-91
2023/02/10 12:20:33;;;;;;;22.50;13.45;;;4.30;99.90;;;;;;4941774;29;20055;-91
2023/02/10 12:23:16;;;;;;;19.90;12.23;;;4.20;99.90;;;;;;4920468;29;20051;-90
2023/02/10 12:25:56;;;;;;;14.77;9.93;;;4.40;99.90;;;;;;4928463;29;20055;-90
2023/02/10 12:28:45;;;;;;;19.80;10.95;;;4.40;99.90;;;;;;4935305;28;20059;-89
2023/02/10 12:31:18;;;;;;;14.65;11.82;;;4.30;99.50;;;;;;4944374;29;20059;-88
2023/02/10 12:34:21;;;;;;;17.77;11.88;;;4.20;99.90;;;;;;4946692;28;20050;-87
2023/02/10 12:37:13;;;;;;;18.63;14.00;;;4.20;99.90;;;;;;4919237;28;20047;-86
2023/02/10 12:39:47;;;;;;;18.92;11.60;;;4.30;99.90;;;;;;4951760;29;20043;-87
2023/02/10 12:42:37;;;;;;;16.90;11.10;;;4.30;99.90;;;;;;4933032;29;20051;-87
2023/02/10 12:45:17;;;;;;;20.10;12.20;;;4.40;99.90;;;;;;4935709;28;20054;-85
2023/02/10 12:48:00;;;;;;;25.17;12.50;;;4.40;99.90;;;;;;4950261;29;20070;-85
2023/02/10 12:50:49;;;;;;;19.45;13.07;;;4.40;99.90;;;;;;4936572;29;20066;-85
2023/02/10 12:53:24;;;;;;;15.95;9.88;;;4.70;99.90;;;;;;4934943;29;20123;-86
2023/02/10 12:56:04;;;;;;;21.75;14.88;;;5.00;99.20;;;;;;4930651;29;20051;-86
2023/02/10 12:58:35;;;;;;;23.42;15.63;;;4.80;99.70;;;;;;4917262;29;20289;-83
2023/02/10 13:01:10;;;;;;;20.35;10.57;;;4.70;99.90;;;;;;4943227;28;20047;-85
2023/02/10 13:03:41;;;;;;;20.15;11.68;;;4.80;99.50;;;;;;4925856;29;20069;-83
2023/02/10 13:06:20;;;;;;;16.10;10.33;;;4.90;99.90;;;;;;4928670;28;20508;-85